Time;durP1;ratioP1;P1;durP2;ratioP2;P2;SDS_P1;SDS_P2;PMS_P1;PMS_P2;Temp;Humidity;BMP_temperature;BMP_pressure;BME280_temperature;BME280_humidity;BME280_pressure;Samples;Min_cycle;Max_cycle;Signal;HPM_P1;HPM_P2
2022/04/20 00:00:22;;;;;;;24.75;22.08;;;;;;;4.74;100.00;99702.88;6183961;23;20017;-80
2022/04/20 00:02:47;;;;;;;27.27;23.08;;;;;;;4.66;100.00;99691.16;6182810;23;20024;-80
2022/04/20 00:05:13;;;;;;;26.98;23.65;;;;;;;4.73;100.00;99704.88;6157193;23;20027;-80
2022/04/20 00:07:38;;;;;;;27.63;23.27;;;;;;;4.76;100.00;99706.00;6183542;23;20013;-80
2022/04/20 00:10:05;;;;;;;27.45;24.08;;;;;;;4.76;100.00;99715.03;6183659;23;20016;-80
2022/04/20 00:12:31;;;;;;;25.85;23.00;;;;;;;4.72;100.00;99719.00;6182768;23;20017;-80
2022/04/20 00:14:56;;;;;;;27.80;23.05;;;;;;;4.65;100.00;99709.59;6183913;23;20028;-80
2022/04/20 00:17:22;;;;;;;26.83;21.38;;;;;;;4.68;100.00;99719.81;6183197;23;20016;-80
2022/04/20 00:19:48;;;;;;;25.85;23.08;;;;;;;4.66;100.00;99713.13;6183819;23;20009;-80
2022/04/20 00:22:13;;;;;;;26.23;22.70;;;;;;;4.68;100.00;99722.56;6182572;23;20473;-80
2022/04/20 00:24:39;;;;;;;27.25;23.67;;;;;;;4.66;100.00;99721.38;6183256;23;20089;-80
2022/04/20 00:27:04;;;;;;;27.13;23.98;;;;;;;4.72;100.00;99724.50;6182563;23;20046;-80
2022/04/20 00:29:30;;;;;;;25.70;22.70;;;;;;;4.70;100.00;99731.16;6182827;23;20009;-80
2022/04/20 00:31:56;;;;;;;27.88;23.23;;;;;;;4.68;100.00;99725.31;6183700;23;20013;-80
2022/04/20 00:34:22;;;;;;;25.70;22.80;;;;;;;4.69;100.00;99717.84;6182615;23;20017;-80
2022/04/20 00:36:51;;;;;;;25.02;22.38;;;;;;;4.69;100.00;99726.09;6183702;23;20016;-80
2022/04/20 00:39:17;;;;;;;25.67;22.95;;;;;;;4.68;100.00;99719.81;6183198;23;20013;-80
2022/04/20 00:41:43;;;;;;;26.85;22.00;;;;;;;4.63;100.00;99722.97;6181101;23;20008;-80
2022/04/20 00:44:09;;;;;;;25.75;22.40;;;;;;;4.66;100.00;99724.91;6132213;23;20012;-80
2022/04/20 00:46:35;;;;;;;25.35;22.60;;;;;;;4.64;100.00;99726.50;6155727;23;20438;-80
2022/04/20 00:49:01;;;;;;;26.10;22.98;;;;;;;4.55;100.00;99718.72;6156275;23;20021;-80
2022/04/20 00:51:29;;;;;;;26.20;22.90;;;;;;;4.61;100.00;99733.59;6155898;23;20017;-80
2022/04/20 00:53:59;;;;;;;26.42;23.55;;;;;;;4.59;100.00;99724.97;6183651;23;20009;-80
2022/04/20 00:56:24;;;;;;;27.35;24.45;;;;;;;4.57;100.00;99724.59;6156384;23;20008;-80
2022/04/20 00:58:50;;;;;;;26.77;23.90;;;;;;;4.58;100.00;99719.88;6155631;23;20017;-80
2022/04/20 01:01:16;;;;;;;27.88;24.65;;;;;;;4.57;100.00;99730.06;6182354;23;20036;-80
2022/04/20 01:03:43;;;;;;;27.38;24.48;;;;;;;4.47;100.00;99713.69;6131086;23;20164;-80
2022/04/20 01:06:08;;;;;;;29.25;26.08;;;;;;;4.52;100.00;99725.03;6182451;23;20016;-80
2022/04/20 01:08:54;;;;;;;29.42;25.27;;;;;;;4.52;100.00;99727.78;6167047;23;20076;-80
2022/04/20 01:11:43;;;;;;;29.58;26.38;;;;;;;4.54;100.00;99727.38;6182309;23;20017;-80
2022/04/20 01:14:26;;;;;;;28.73;25.63;;;;;;;4.54;100.00;99727.38;6155239;23;20532;-80
2022/04/20 01:17:06;;;;;;;31.52;26.63;;;;;;;4.45;100.00;99722.31;6181618;23;20239;-80
2022/04/20 01:19:52;;;;;;;31.85;27.42;;;;;;;4.51;100.00;99720.72;6151314;23;20027;-80
2022/04/20 01:22:23;;;;;;;30.45;26.67;;;;;;;4.51;100.00;99739.16;6155388;23;20013;-80
2022/04/20 01:25:06;;;;;;;32.60;27.60;;;;;;;4.53;100.00;99734.81;6156782;23;20009;-80
2022/04/20 01:27:51;;;;;;;32.20;27.02;;;;;;;4.50;100.00;99730.13;6182827;23;20032;-81
2022/04/20 01:30:37;;;;;;;30.52;27.20;;;;;;;4.43;100.00;99719.22;6160245;23;20024;-80
2022/04/20 01:33:23;;;;;;;33.20;28.20;;;;;;;4.46;100.00;99723.88;6155556;23;20013;-80
2022/04/20 01:35:51;;;;;;;33.13;28.65;;;;;;;4.44;100.00;99729.03;6156191;23;20049;-80
2022/04/20 01:38:17;;;;;;;34.47;29.08;;;;;;;4.43;100.00;99732.94;6156076;23;20339;-80
2022/04/20 01:40:42;;;;;;;34.42;28.75;;;;;;;4.30;100.00;99720.88;6155267;23;20075;-80
2022/04/20 01:43:08;;;;;;;34.00;29.50;;;;;;;4.38;100.00;99735.31;6153020;23;20020;-80
2022/04/20 01:45:36;;;;;;;33.85;28.60;;;;;;;4.34;100.00;99740.06;6152369;23;20017;-80
2022/04/20 01:48:19;;;;;;;;;;;;;;;4.31;100.00;99744.41;6160396;23;20032;-80
2022/04/20 01:53:56;;;;;;;32.33;27.50;;;;;;;4.22;100.00;99730.31;6157643;23;20055;-88
2022/04/20 01:57:00;;;;;;;34.38;28.20;;;;;;;4.25;100.00;99740.50;6120477;23;20025;-89
2022/04/20 01:59:39;;;;;;;35.60;28.98;;;;;;;4.21;100.00;99739.75;6095172;23;20017;-89
2022/04/20 02:02:40;;;;;;;34.75;28.90;;;;;;;4.23;100.00;99740.91;6153007;23;20343;-89
2022/04/20 02:05:24;;;;;;;35.97;29.05;;;;;;;4.24;100.00;99747.19;6183062;23;20021;-90
2022/04/20 02:08:03;;;;;;;35.53;29.25;;;;;;;4.24;100.00;99747.19;6182888;23;20032;-80
2022/04/20 02:10:49;;;;;;;35.88;29.42;;;;;;;4.24;100.00;99755.44;6156590;23;20084;-80
2022/04/20 02:13:14;;;;;;;36.03;29.38;;;;;;;4.12;100.00;99739.41;6107369;23;20343;-80
2022/04/20 02:15:40;;;;;;;34.30;28.42;;;;;;;4.20;100.00;99746.44;6155824;23;20023;-80
2022/04/20 02:18:25;;;;;;;36.22;29.95;;;;;;;4.15;100.00;99757.81;6182092;23;20031;-80
2022/04/20 02:21:03;;;;;;;35.55;29.13;;;;;;;4.13;100.00;99743.72;6134045;23;20037;-80
2022/04/20 02:23:29;;;;;;;33.25;28.15;;;;;;;4.05;100.00;99748.44;6155331;23;20053;-80
2022/04/20 02:25:54;;;;;;;35.92;29.42;;;;;;;4.05;100.00;99758.66;6155595;23;20395;-80
2022/04/20 02:28:21;;;;;;;35.65;29.40;;;;;;;4.02;100.00;99759.44;6156085;23;20041;-80
2022/04/20 02:30:47;;;;;;;34.45;29.02;;;;;;;3.91;100.00;99751.28;6182530;23;20117;-79
2022/04/20 02:33:15;;;;;;;36.80;28.05;;;;;;;3.95;100.00;99771.25;6155804;23;20091;-80
2022/04/20 02:35:41;;;;;;;37.72;29.13;;;;;;;3.93;100.00;99761.84;6182127;23;20048;-79
2022/04/20 02:38:15;;;;;;;35.28;28.88;;;;;;;3.91;100.00;99775.19;6156007;23;20013;-80
2022/04/20 02:40:41;;;;;;;35.42;28.65;;;;;;;3.88;100.00;99773.25;6182584;23;20024;-79
2022/04/20 02:43:07;;;;;;;31.73;26.65;;;;;;;3.86;100.00;99773.63;6155758;23;20025;-80
2022/04/20 02:45:33;;;;;;;36.03;28.70;;;;;;;3.80;100.00;99772.50;6181440;23;20016;-90
2022/04/20 02:47:59;;;;;;;36.33;29.33;;;;;;;3.76;100.00;99780.72;6155690;23;20013;-80
2022/04/20 02:50:25;;;;;;;33.83;27.83;;;;;;;3.76;100.00;99782.72;6156368;23;20009;-80
2022/04/20 02:52:51;;;;;;;35.38;28.33;;;;;;;3.67;100.00;99771.38;6182280;23;20009;-80
2022/04/20 02:55:16;;;;;;;35.15;28.42;;;;;;;3.67;100.00;99776.84;6184109;23;20005;-80
2022/04/20 02:57:42;;;;;;;34.22;28.60;;;;;;;3.61;100.00;99779.22;6157025;23;20020;-80
2022/04/20 03:00:09;;;;;;;33.60;28.20;;;;;;;3.54;100.00;99773.75;6157451;23;20055;-80
2022/04/20 03:02:43;;;;;;;36.78;29.77;;;;;;;3.56;100.00;99776.09;6156600;23;20063;-81
2022/04/20 03:05:10;;;;;;;34.22;28.65;;;;;;;3.48;100.00;99767.09;6158282;23;20049;-90
2022/04/20 03:07:35;;;;;;;35.20;28.73;;;;;;;3.50;100.00;99783.94;6156668;23;20045;-91
2022/04/20 03:10:01;;;;;;;35.50;27.85;;;;;;;3.43;100.00;99767.50;6184495;23;20431;-89
2022/04/20 03:12:33;;;;;;;36.47;29.13;;;;;;;3.50;100.00;99783.94;6157115;23;20040;-89
2022/04/20 03:14:59;;;;;;;35.50;27.95;;;;;;;3.50;100.00;99783.94;6157993;23;20062;-89
2022/04/20 03:17:25;;;;;;;35.63;29.67;;;;;;;3.45;100.00;99778.84;6183842;23;20012;-89
2022/04/20 03:19:53;;;;;;;35.53;27.45;;;;;;;3.49;100.00;99781.59;6157453;23;20021;-89
2022/04/20 03:22:19;;;;;;;36.97;29.55;;;;;;;3.45;100.00;99784.34;6133198;23;20076;-90
2022/04/20 03:24:45;;;;;;;36.17;27.77;;;;;;;3.52;100.00;99798.03;6157597;23;20013;-80
2022/04/20 03:27:33;;;;;;;37.15;30.17;;;;;;;3.46;100.00;99776.91;6182995;23;20017;-80
2022/04/20 03:30:01;;;;;;;36.15;28.80;;;;;;;3.50;100.00;99785.91;6183640;23;20359;-80
2022/04/20 03:32:27;;;;;;;37.90;28.42;;;;;;;3.51;100.00;99792.94;6157266;23;20020;-80
2022/04/20 03:34:53;;;;;;;36.20;29.95;;;;;;;3.50;100.00;99797.66;6157536;23;20335;-80
2022/04/20 03:37:20;;;;;;;35.40;29.02;;;;;;;3.49;100.00;99806.25;6183903;23;20024;-80
2022/04/20 03:39:46;;;;;;;37.17;29.85;;;;;;;3.47;100.00;99806.69;6157157;23;20013;-80
2022/04/20 03:42:12;;;;;;;37.47;30.65;;;;;;;3.44;100.00;99806.69;6157218;23;20017;-89
2022/04/20 03:44:38;;;;;;;37.00;28.92;;;;;;;3.37;100.00;99799.22;6183934;23;20067;-80
2022/04/20 03:47:04;;;;;;;37.40;29.73;;;;;;;3.38;100.00;99800.81;6157507;23;20024;-80
2022/04/20 03:49:30;;;;;;;39.83;30.17;;;;;;;3.39;100.00;99809.81;6183995;23;20015;-81
2022/04/20 03:51:55;;;;;;;38.05;30.02;;;;;;;3.47;100.00;99812.16;6183072;23;20044;-80
2022/04/20 03:54:27;;;;;;;36.47;28.83;;;;;;;3.46;100.00;99809.81;6158242;23;20017;-80
2022/04/20 03:57:07;;;;;;;34.80;29.27;;;;;;;3.52;100.00;99814.47;6183089;23;20020;-80
2022/04/20 03:59:39;;;;;;;36.05;28.52;;;;;;;3.56;100.00;99822.72;6157557;23;20013;-80
2022/04/20 04:02:05;;;;;;;36.17;28.90;;;;;;;3.49;100.00;99804.31;6154548;23;20013;-80
2022/04/20 04:04:35;;;;;;;31.80;25.77;;;;;;;3.53;100.00;99824.28;6157295;23;20017;-80
2022/04/20 04:07:08;;;;;;;35.72;28.45;;;;;;;3.53;100.00;99824.28;6157070;23;20048;-80
2022/04/20 04:09:34;;;;;;;35.80;27.92;;;;;;;3.57;100.00;99819.56;6157362;23;20021;-80
2022/04/20 04:12:00;;;;;;;33.83;28.02;;;;;;;3.56;100.00;99828.22;6156482;23;20067;-80
2022/04/20 04:14:25;;;;;;;32.92;26.95;;;;;;;3.50;100.00;99821.53;6157116;23;20343;-80
2022/04/20 04:16:52;;;;;;;33.40;26.55;;;;;;;3.42;100.00;99814.50;6156970;23;20020;-80
2022/04/20 04:19:19;;;;;;;33.30;27.52;;;;;;;3.49;100.00;99829.00;6156515;23;20009;-80
2022/04/20 04:21:49;;;;;;;33.00;27.38;;;;;;;3.45;100.00;99828.22;6156536;23;20020;-80
2022/04/20 04:24:34;;;;;;;34.30;28.40;;;;;;;3.50;100.00;99829.78;6182306;23;20041;-80
2022/04/20 04:27:03;;;;;;;33.83;27.83;;;;;;;3.53;100.00;99837.22;6156620;23;20108;-80
2022/04/20 04:29:29;;;;;;;32.60;26.90;;;;;;;3.52;100.00;99839.16;6132579;23;20049;-80
2022/04/20 04:31:55;;;;;;;33.47;27.33;;;;;;;3.53;100.00;99842.69;6128913;23;20020;-80
2022/04/20 04:34:21;;;;;;;33.15;27.13;;;;;;;3.53;100.00;99835.25;6128860;23;20074;-80
2022/04/20 04:36:48;;;;;;;31.35;25.50;;;;;;;3.49;100.00;99834.47;6152214;23;20021;-81
2022/04/20 04:39:17;;;;;;;33.63;26.77;;;;;;;3.45;100.00;99825.47;6152319;23;20016;-81
2022/04/20 04:41:46;;;;;;;31.80;26.10;;;;;;;3.51;100.00;99845.06;6153463;23;20123;-81
2022/04/20 04:44:12;;;;;;;30.98;25.20;;;;;;;3.52;100.00;99843.88;6155278;23;20088;-81
2022/04/20 04:49:43;;;;;;;26.75;22.75;;;;;;;3.49;100.00;99839.16;6181317;23;20060;-82
2022/04/20 04:52:11;;;;;;;27.33;21.83;;;;;;;3.49;100.00;99834.47;6153918;23;20485;-81
2022/04/20 04:54:40;;;;;;;30.70;23.25;;;;;;;3.59;100.00;99847.41;6153183;23;20356;-81
2022/04/20 04:57:08;;;;;;;29.00;23.67;;;;;;;3.66;100.00;99847.38;6152782;23;20021;-81
2022/04/20 04:59:40;;;;;;;26.95;22.25;;;;;;;3.71;100.00;99846.97;6129219;23;20068;-81
2022/04/20 05:02:06;;;;;;;26.95;22.25;;;;;;;3.81;100.00;99848.13;6152056;23;20020;-82
2022/04/20 05:04:34;;;;;;;29.23;23.88;;;;;;;3.93;100.00;99844.16;6179104;23;20087;-81
2022/04/20 05:07:02;;;;;;;27.92;22.25;;;;;;;3.91;100.00;99857.50;6153023;23;20413;-82
2022/04/20 05:09:34;;;;;;;25.52;20.98;;;;;;;4.02;100.00;99859.03;6152758;23;20027;-82
2022/04/20 05:12:01;;;;;;;24.40;20.35;;;;;;;3.89;100.00;99846.13;6151613;23;20013;-81
2022/04/20 05:14:29;;;;;;;26.70;21.17;;;;;;;4.05;100.00;99860.19;6151537;23;20024;-80
2022/04/20 05:16:56;;;;;;;27.08;21.88;;;;;;;4.17;100.00;99857.03;6152970;23;20017;-81
2022/04/20 05:19:21;;;;;;;24.95;20.63;;;;;;;4.22;100.00;99859.34;6153662;23;20020;-80
2022/04/20 05:21:51;;;;;;;25.63;21.15;;;;;;;4.30;100.00;99863.63;6130140;23;20024;-80
2022/04/20 05:24:23;;;;;;;23.63;21.07;;;;;;;4.44;100.00;99869.09;6155091;23;20017;-81
2022/04/20 05:26:49;;;;;;;24.08;20.15;;;;;;;4.52;100.00;99875.31;6155122;23;20073;-81
2022/04/20 05:29:17;;;;;;;24.58;21.48;;;;;;;4.71;100.00;99883.06;6130284;23;20032;-80
2022/04/20 05:31:59;;;;;;;24.08;20.35;;;;;;;4.68;100.00;99878.38;6133882;23;20127;-81
2022/04/20 05:34:30;;;;;;;22.58;19.17;;;;;;;4.62;100.00;99875.25;6131731;23;20438;-81
2022/04/20 05:42:25;;;;;;;22.73;19.17;;;;;;;4.93;100.00;99878.22;6133533;23;20017;-82
2022/04/20 05:44:52;;;;;;;20.58;18.27;;;;;;;4.98;100.00;99869.53;6153908;23;20013;-81
2022/04/20 05:47:18;;;;;;;20.38;18.15;;;;;;;5.01;100.00;99863.25;6154198;23;20040;-82
2022/04/20 05:49:44;;;;;;;20.98;17.85;;;;;;;5.23;100.00;99875.66;6131824;23;20080;-81
2022/04/20 05:52:11;;;;;;;18.05;16.13;;;;;;;5.29;100.00;99879.53;6127652;23;20405;-81
2022/04/20 05:54:37;;;;;;;21.52;18.02;;;;;;;5.33;100.00;99869.28;6128014;23;20317;-81
2022/04/20 05:57:03;;;;;;;19.42;16.80;;;;;;;5.50;100.00;99878.59;6181335;23;20021;-91
2022/04/20 05:59:31;;;;;;;18.17;15.80;;;;;;;5.44;100.00;99867.22;6131013;23;20021;-91
2022/04/20 06:01:57;;;;;;;17.15;15.07;;;;;;;5.41;100.00;99876.31;6154493;23;20021;-91
2022/04/20 06:04:23;;;;;;;16.95;15.23;;;;;;;5.35;100.00;99877.91;6155208;23;20017;-91
2022/04/20 06:07:15;;;;;;;16.73;14.93;;;;;;;5.44;100.00;99869.19;6176643;23;20021;-91
2022/04/20 06:09:50;;;;;;;15.90;14.15;;;;;;;5.46;100.00;99884.09;6154439;23;20027;-92
2022/04/20 06:12:39;;;;;;;17.05;15.25;;;;;;;5.54;100.00;99868.34;6181377;23;20092;-93
2022/04/20 06:15:19;;;;;;;18.70;15.57;;;;;;;5.88;100.00;99871.94;6156047;23;20024;-92
2022/04/20 06:18:08;;;;;;;16.05;14.35;;;;;;;6.07;100.00;99865.03;6155954;23;20048;-91
2022/04/20 06:20:34;;;;;;;15.10;13.50;;;;;;;6.14;98.60;99878.75;6131639;23;20071;-91
2022/04/20 06:23:35;;;;;;;15.43;13.82;;;;;;;6.19;99.54;99870.03;6121305;23;20099;-92
2022/04/20 06:26:19;;;;;;;15.82;14.10;;;;;;;6.20;98.04;99879.06;6178107;23;20072;-91
2022/04/20 06:28:59;;;;;;;16.05;14.35;;;;;;;6.36;98.56;99880.03;6137677;23;20095;-91
2022/04/20 06:31:51;;;;;;;15.38;13.77;;;;;;;6.47;96.04;99875.19;6154791;23;20025;-91
2022/04/20 06:34:18;;;;;;;16.83;14.43;;;;;;;6.61;96.66;99868.72;6169060;23;20013;-92
2022/04/20 06:36:57;;;;;;;16.30;14.60;;;;;;;6.88;96.00;99879.75;6158619;23;20029;-92
2022/04/20 06:39:49;;;;;;;16.63;14.90;;;;;;;6.79;95.09;99876.75;6158629;23;20021;-92
2022/04/20 06:42:34;;;;;;;15.80;14.10;;;;;;;7.08;95.02;99871.59;6158445;23;20020;-91
2022/04/20 06:45:23;;;;;;;16.50;14.77;;;;;;;7.42;92.81;99873.00;6158697;23;20116;-92
2022/04/20 06:48:01;;;;;;;25.52;15.52;;;;;;;7.52;92.03;99876.03;6136556;23;20005;-91
2022/04/20 06:50:47;;;;;;;16.67;14.95;;;;;;;7.61;92.06;99870.72;6158310;23;20033;-92
2022/04/20 06:59:04;;;;;;;16.17;14.40;;;;;;;8.18;89.25;99867.69;6137657;23;20063;-92
2022/04/20 07:01:52;;;;;;;15.27;13.68;;;;;;;8.27;87.44;99871.44;6155779;23;20300;-92
2022/04/20 07:04:41;;;;;;;15.68;14.07;;;;;;;8.50;87.28;99867.06;6142169;23;20396;-92
2022/04/20 07:07:19;;;;;;;15.35;13.75;;;;;;;8.47;85.64;99867.94;6158489;23;20017;-92
2022/04/20 07:10:08;;;;;;;15.93;14.32;;;;;;;8.67;84.18;99876.97;6176791;23;20017;-93
2022/04/20 07:12:50;;;;;;;15.57;13.98;;;;;;;8.80;83.55;99873.13;6157616;23;20013;-92
2022/04/20 07:15:16;;;;;;;16.02;14.43;;;;;;;8.59;82.00;99864.50;6184641;23;20336;-91
2022/04/20 07:17:42;;;;;;;16.33;13.88;;;;;;;8.80;82.16;99859.31;6157790;23;20012;-92
2022/04/20 07:20:30;;;;;;;16.30;14.60;;;;;;;8.84;81.18;99862.78;6158318;23;20017;-92
2022/04/20 07:23:11;;;;;;;17.52;14.80;;;;;;;8.93;83.08;99864.94;6157598;23;20370;-92
2022/04/20 07:25:46;;;;;;;15.85;14.25;;;;;;;9.00;81.81;99855.69;6158331;23;20092;-92
2022/04/20 07:28:35;;;;;;;15.85;14.25;;;;;;;9.16;81.51;99858.47;6137796;23;20024;-91
2022/04/20 07:31:04;;;;;;;15.85;14.23;;;;;;;9.02;80.07;99862.34;6194838;23;20021;-91
2022/04/20 07:33:48;;;;;;;16.88;14.70;;;;;;;9.16;82.42;99859.25;6184117;23;20040;-92
2022/04/20 07:36:32;;;;;;;;;;;;;;;9.48;80.13;99857.69;6184686;23;20039;-91
2022/04/20 07:39:16;;;;;;;16.15;14.45;;;;;;;9.48;79.66;99857.69;6183716;23;19974;-91
2022/04/20 07:42:00;;;;;;;18.13;14.60;;;;;;;9.43;81.50;99850.69;6184029;23;20068;-91
2022/04/20 07:44:48;;;;;;;15.57;14.13;;;;;;;9.64;81.84;99860.44;6176395;23;20020;-91
2022/04/20 07:47:30;;;;;;;15.27;13.77;;;;;;;10.08;78.75;99861.66;6161215;23;20036;-91
2022/04/20 07:50:21;;;;;;;15.45;13.85;;;;;;;10.04;77.01;99850.66;6157697;23;20029;-90
2022/04/20 07:53:07;;;;;;;16.25;14.60;;;;;;;10.00;77.91;99849.97;6183679;23;20119;-91
2022/04/20 07:55:51;;;;;;;14.63;13.18;;;;;;;9.90;77.75;99851.06;6161933;23;20051;-90
2022/04/20 07:58:26;;;;;;;15.15;13.65;;;;;;;10.13;78.09;99858.34;6157805;23;20048;-91
2022/04/20 08:01:06;;;;;;;18.13;14.18;;;;;;;10.04;78.31;99845.13;6157449;23;20013;-91
2022/04/20 08:03:34;;;;;;;16.15;13.60;;;;;;;10.42;78.03;99833.41;6183750;23;20028;-92
2022/04/20 08:06:01;;;;;;;14.80;13.35;;;;;;;10.69;75.51;99839.31;6157297;23;20029;-90
2022/04/20 08:08:30;;;;;;;20.75;13.52;;;;;;;10.56;75.10;99830.97;6157677;23;20021;-91
2022/04/20 08:10:57;;;;;;;14.50;12.93;;;;;;;10.87;76.20;99833.22;6157344;23;20017;-92
2022/04/20 08:16:14;;;;;;;13.40;12.15;;;;;;;10.79;75.22;99827.13;6154914;23;20013;-91
2022/04/20 08:19:02;;;;;;;14.73;12.45;;;;;;;10.89;75.60;99836.31;6183787;23;20041;-91
2022/04/20 08:22:00;;;;;;;13.35;12.05;;;;;;;11.11;73.05;99832.44;6170662;23;20032;-91
2022/04/20 08:24:26;;;;;;;13.10;11.80;;;;;;;11.54;73.69;99826.25;6184031;23;20044;-90
2022/04/20 08:26:52;;;;;;;14.02;12.10;;;;;;;11.93;69.91;99824.16;6184156;23;20009;-91
2022/04/20 08:29:17;;;;;;;13.20;11.75;;;;;;;11.77;69.21;99838.22;6183721;23;20013;-91
2022/04/20 08:31:43;;;;;;;12.93;11.73;;;;;;;11.71;69.68;99818.53;6133033;23;20009;-81
2022/04/20 08:34:08;;;;;;;12.98;11.65;;;;;;;11.55;67.40;99833.38;6157667;23;20079;-82
2022/04/20 08:36:34;;;;;;;12.80;11.55;;;;;;;11.59;69.82;99828.47;6183851;23;20051;-82
2022/04/20 08:39:00;;;;;;;12.45;11.25;;;;;;;11.75;68.89;99829.56;6183399;23;20020;-81
2022/04/20 08:41:26;;;;;;;12.52;11.32;;;;;;;11.99;68.78;99828.69;6157490;23;20009;-82
2022/04/20 08:43:52;;;;;;;12.80;11.48;;;;;;;12.14;64.81;99826.16;6156978;23;20015;-82
2022/04/20 08:46:18;;;;;;;12.45;11.20;;;;;;;11.93;65.10;99824.91;6183818;23;20116;-82
2022/04/20 08:48:43;;;;;;;14.57;11.88;;;;;;;11.87;66.87;99828.72;6157032;23;20017;-82
2022/04/20 08:51:09;;;;;;;13.60;12.20;;;;;;;11.68;66.21;99816.66;6156424;23;20063;-82
2022/04/20 08:53:35;;;;;;;13.13;11.82;;;;;;;12.01;67.68;99834.53;6157211;23;20005;-82
2022/04/20 08:58:50;;;;;;;12.75;11.52;;;;;;;12.13;65.74;99836.50;6160949;23;20024;-82
2022/04/20 09:01:17;;;;;;;12.85;11.63;;;;;;;12.32;65.44;99833.84;6157169;23;20316;-82
2022/04/20 09:03:44;;;;;;;12.80;11.60;;;;;;;12.69;63.25;99840.41;6156310;23;20017;-82
2022/04/20 09:06:09;;;;;;;13.45;12.25;;;;;;;12.54;64.17;99835.38;6182896;23;20009;-90
2022/04/20 09:08:36;;;;;;;13.93;11.77;;;;;;;12.75;64.52;99819.88;6183208;23;20013;-89
2022/04/20 09:11:01;;;;;;;14.27;12.38;;;;;;;12.93;63.79;99833.09;6183495;23;20013;-91
2022/04/20 09:13:41;;;;;;;13.50;12.20;;;;;;;13.06;63.00;99820.59;6156429;23;20013;-90
2022/04/20 09:16:12;;;;;;;13.63;12.23;;;;;;;13.42;63.18;99822.00;6157012;23;20436;-90
2022/04/20 09:18:39;;;;;;;12.07;10.95;;;;;;;13.53;58.56;99819.53;6183045;23;20020;-91
2022/04/20 09:21:12;;;;;;;12.07;10.90;;;;;;;13.09;59.24;99803.00;6183217;23;20036;-90
2022/04/20 09:23:38;;;;;;;11.85;10.65;;;;;;;12.76;60.35;99815.88;6156586;23;20017;-90
2022/04/20 09:26:11;;;;;;;12.25;11.07;;;;;;;12.86;59.13;99811.88;6183236;23;20009;-90
2022/04/20 09:28:42;;;;;;;;;;;;;;;13.16;59.97;99806.75;6183260;23;20013;-91
2022/04/20 09:31:09;;;;;;;12.18;10.98;;;;;;;13.54;60.47;99815.50;6157195;23;19916;-90
2022/04/20 09:33:42;;;;;;;11.50;10.40;;;;;;;13.72;57.43;99798.78;6157273;23;20001;-90
2022/04/20 09:36:08;;;;;;;13.02;11.10;;;;;;;13.78;55.60;99810.09;6183366;23;20013;-90
2022/04/20 09:38:37;;;;;;;14.45;10.98;;;;;;;13.65;55.03;99798.31;6183494;23;20399;-90
2022/04/20 09:41:12;;;;;;;10.57;9.55;;;;;;;13.63;55.63;99806.38;6183703;23;20032;-91
2022/04/20 09:43:38;;;;;;;10.32;9.32;;;;;;;13.84;52.45;99800.66;6182889;23;20016;-89
2022/04/20 09:49:07;;;;;;;11.57;10.48;;;;;;;13.07;51.56;99807.47;6182877;23;20394;-89
2022/04/20 09:51:37;;;;;;;11.30;10.23;;;;;;;12.80;53.77;99807.38;6183369;23;20268;-89
2022/04/20 09:54:02;;;;;;;10.20;9.30;;;;;;;13.27;51.12;99801.50;6182305;23;20012;-90
2022/04/20 09:56:28;;;;;;;10.55;9.55;;;;;;;13.61;50.95;99798.47;6182881;23;20372;-87
2022/04/20 09:59:04;;;;;;;11.30;10.20;;;;;;;14.04;50.63;99805.75;6182301;23;20020;-90
2022/04/20 10:01:34;;;;;;;10.05;9.15;;;;;;;14.32;49.39;99806.47;6155978;23;20116;-89
2022/04/20 10:04:05;;;;;;;9.70;8.80;;;;;;;14.02;46.94;99806.22;6182409;23;20343;-90
2022/04/20 10:06:31;;;;;;;10.80;9.77;;;;;;;14.03;49.31;99802.19;6156865;23;20051;-89
2022/04/20 10:08:57;;;;;;;11.45;9.32;;;;;;;14.05;48.31;99792.56;6182501;23;20013;-89
2022/04/20 10:11:23;;;;;;;9.93;8.93;;;;;;;13.89;46.16;99796.47;6182563;23;20016;-90
2022/04/20 10:17:00;;;;;;;9.45;8.55;;;;;;;14.05;46.06;99784.22;6182974;23;20005;-89
2022/04/20 10:19:27;;;;;;;10.07;9.13;;;;;;;14.13;45.26;99777.06;6182568;23;20009;-90
2022/04/20 10:21:56;;;;;;;10.25;9.23;;;;;;;14.35;45.24;99772.88;6182251;23;20001;-90
2022/04/20 10:24:29;;;;;;;9.60;8.68;;;;;;;14.46;44.24;99780.75;6182676;23;20009;-89
2022/04/20 10:26:59;;;;;;;10.02;9.07;;;;;;;14.34;45.18;99770.53;6156474;23;20017;-89
2022/04/20 10:29:49;;;;;;;9.90;9.00;;;;;;;14.51;45.15;99768.97;6156394;23;20029;-90
2022/04/20 10:32:26;;;;;;;9.52;8.63;;;;;;;14.47;44.90;99762.78;6181829;23;20021;-89
2022/04/20 10:35:03;;;;;;;9.15;8.25;;;;;;;14.29;45.26;99777.50;6133366;23;20017;-90
2022/04/20 10:38:09;;;;;;;9.60;8.70;;;;;;;14.09;44.85;99765.31;6113042;23;20013;-89
2022/04/20 10:41:13;;;;;;;10.25;8.23;;;;;;;14.29;43.74;99762.78;6156173;23;20013;-90
2022/04/20 10:43:42;;;;;;;9.23;8.20;;;;;;;14.46;42.39;99761.22;6156339;23;20025;-90
2022/04/20 10:46:18;;;;;;;8.80;7.90;;;;;;;14.64;44.63;99755.56;6182411;23;20513;-89
2022/04/20 10:48:58;;;;;;;9.18;7.55;;;;;;;14.81;41.45;99751.13;6181830;23;20013;-89
2022/04/20 10:51:35;;;;;;;9.25;7.63;;;;;;;14.92;40.23;99748.59;6182901;23;20013;-89
2022/04/20 10:54:29;;;;;;;8.50;7.70;;;;;;;15.06;41.36;99737.97;6155944;23;20017;-88
2022/04/20 10:57:01;;;;;;;7.60;6.90;;;;;;;15.27;40.78;99750.88;6154811;23;20064;-90
2022/04/20 10:59:28;;;;;;;8.82;7.93;;;;;;;15.73;41.02;99749.31;6181585;23;20338;-89
2022/04/20 11:02:02;;;;;;;11.18;7.75;;;;;;;15.62;39.61;99751.88;6154437;23;20013;-81
2022/04/20 11:04:54;;;;;;;8.30;7.45;;;;;;;15.80;40.25;99746.16;6153865;23;20327;-81
2022/04/20 11:07:23;;;;;;;9.15;8.25;;;;;;;15.66;40.32;99744.09;6124821;23;20017;-81
2022/04/20 11:10:08;;;;;;;9.40;8.50;;;;;;;15.99;42.38;99748.78;6129963;23;20037;-81
2022/04/20 11:18:38;;;;;;;9.10;8.20;;;;;;;15.53;40.67;99734.44;6171836;23;20021;-81
2022/04/20 11:21:23;;;;;;;8.38;7.60;;;;;;;15.01;40.68;99744.22;6184058;23;20028;-81
2022/04/20 11:23:58;;;;;;;8.98;8.07;;;;;;;15.23;41.99;99748.28;6156719;23;20351;-81
2022/04/20 11:26:30;;;;;;;9.23;8.43;;;;;;;14.98;42.65;99734.00;6184012;23;20100;-81
2022/04/20 11:29:02;;;;;;;8.10;7.30;;;;;;;14.60;42.11;99738.19;6183376;23;20017;-81
2022/04/20 11:31:38;;;;;;;8.70;7.82;;;;;;;14.05;43.22;99745.16;6134033;23;20009;-81
2022/04/20 11:34:04;;;;;;;;;;;;;;;13.75;42.64;99746.94;6184618;23;20009;-81
2022/04/20 11:36:30;;;;;;;8.40;7.57;;;;;;;13.90;43.51;99748.63;6133705;23;20161;-81
2022/04/20 11:38:58;;;;;;;8.18;6.70;;;;;;;14.33;41.86;99729.91;6183781;23;20438;-81
2022/04/20 11:41:23;;;;;;;7.40;6.40;;;;;;;14.57;37.32;99725.19;6184143;23;20005;-81
2022/04/20 11:43:49;;;;;;;7.63;6.40;;;;;;;14.62;37.80;99718.19;6182603;23;20024;-81
2022/04/20 11:46:16;;;;;;;7.00;6.30;;;;;;;14.62;38.21;99734.94;6155231;23;20048;-80
2022/04/20 11:48:50;;;;;;;8.05;7.25;;;;;;;14.48;39.19;99732.84;6181581;23;20421;-81
2022/04/20 11:51:20;;;;;;;7.63;6.80;;;;;;;14.31;40.80;99732.41;6181999;23;20391;-81
2022/04/20 11:53:46;;;;;;;8.38;7.57;;;;;;;14.23;40.62;99728.41;6155246;23;20012;-80
2022/04/20 11:56:17;;;;;;;9.05;8.15;;;;;;;14.06;41.42;99730.00;6155670;23;20009;-81
2022/04/20 11:58:49;;;;;;;8.45;7.55;;;;;;;13.88;41.90;99714.84;6155118;23;20025;-81
2022/04/20 12:01:15;;;;;;;7.93;7.10;;;;;;;13.83;41.70;99707.09;6155232;23;20043;-80
2022/04/20 12:03:43;;;;;;;8.25;7.45;;;;;;;13.72;41.65;99726.31;6181136;23;20017;-80
2022/04/20 12:06:10;;;;;;;7.45;6.75;;;;;;;13.48;41.06;99717.03;6181913;23;20443;-81
2022/04/20 12:08:40;;;;;;;7.68;6.97;;;;;;;13.43;42.30;99721.22;6182060;23;20014;-80
2022/04/20 12:11:08;;;;;;;8.95;8.10;;;;;;;13.41;44.61;99717.34;6181403;23;20017;-80
2022/04/20 12:13:34;;;;;;;9.23;8.32;;;;;;;13.78;44.12;99718.88;6181741;23;20443;-80
2022/04/20 12:16:05;;;;;;;8.13;7.32;;;;;;;14.15;41.75;99707.66;6156084;23;20060;-80
2022/04/20 12:18:36;;;;;;;9.20;8.00;;;;;;;14.51;38.82;99701.19;6182646;23;20017;-80